sensor_id;sensor_type;location;lat;lon;timestamp;P1;durP1;ratioP1;P2;durP2;ratioP2
8001;SDS011;4046;48.774;8.732;2022-11-20T00:00:27;1.87;;;1.77;;
8001;SDS011;4046;48.774;8.732;2022-11-20T00:02:54;2.10;;;2.00;;
8001;SDS011;4046;48.774;8.732;2022-11-20T00:05:20;2.10;;;2.00;;
8001;SDS011;4046;48.774;8.732;2022-11-20T00:07:46;1.90;;;1.80;;
8001;SDS011;4046;48.774;8.732;2022-11-20T00:10:12;2.00;;;1.90;;
8001;SDS011;4046;48.774;8.732;2022-11-20T00:12:38;1.70;;;1.60;;
8001;SDS011;4046;48.774;8.732;2022-11-20T00:15:05;1.93;;;1.83;;
8001;SDS011;4046;48.774;8.732;2022-11-20T00:17:31;1.70;;;1.50;;
8001;SDS011;4046;48.774;8.732;2022-11-20T00:19:57;1.63;;;1.50;;
8001;SDS011;4046;48.774;8.732;2022-11-20T00:22:24;1.77;;;1.67;;
8001;SDS011;4046;48.774;8.732;2022-11-20T00:24:50;2.00;;;1.90;;
8001;SDS011;4046;48.774;8.732;2022-11-20T00:27:16;1.87;;;1.77;;
8001;SDS011;4046;48.774;8.732;2022-11-20T00:29:42;1.70;;;1.60;;
8001;SDS011;4046;48.774;8.732;2022-11-20T00:32:08;1.50;;;1.40;;
8001;SDS011;4046;48.774;8.732;2022-11-20T00:34:34;1.87;;;1.77;;
8001;SDS011;4046;48.774;8.732;2022-11-20T00:37:01;2.00;;;1.90;;
8001;SDS011;4046;48.774;8.732;2022-11-20T00:39:27;1.80;;;1.70;;
8001;SDS011;4046;48.774;8.732;2022-11-20T00:41:53;1.50;;;1.40;;
8001;SDS011;4046;48.774;8.732;2022-11-20T00:44:19;1.77;;;1.67;;
8001;SDS011;4046;48.774;8.732;2022-11-20T00:46:45;1.40;;;1.30;;
8001;SDS011;4046;48.774;8.732;2022-11-20T00:49:11;1.90;;;1.80;;
8001;SDS011;4046;48.774;8.732;2022-11-20T00:51:38;1.70;;;1.57;;
8001;SDS011;4046;48.774;8.732;2022-11-20T00:54:04;1.40;;;1.30;;
8001;SDS011;4046;48.774;8.732;2022-11-20T00:56:30;1.90;;;1.80;;
8001;SDS011;4046;48.774;8.732;2022-11-20T00:58:58;1.83;;;1.73;;
8001;SDS011;4046;48.774;8.732;2022-11-20T01:01:25;2.07;;;1.97;;
8001;SDS011;4046;48.774;8.732;2022-11-20T01:03:52;1.60;;;1.50;;
8001;SDS011;4046;48.774;8.732;2022-11-20T01:06:21;1.83;;;1.73;;
8001;SDS011;4046;48.774;8.732;2022-11-20T01:08:50;1.70;;;1.60;;
8001;SDS011;4046;48.774;8.732;2022-11-20T01:11:19;2.03;;;1.93;;
8001;SDS011;4046;48.774;8.732;2022-11-20T01:13:48;1.50;;;1.40;;
8001;SDS011;4046;48.774;8.732;2022-11-20T01:16:17;1.80;;;1.70;;
8001;SDS011;4046;48.774;8.732;2022-11-20T01:18:45;2.00;;;1.80;;
8001;SDS011;4046;48.774;8.732;2022-11-20T01:21:14;1.70;;;1.60;;
8001;SDS011;4046;48.774;8.732;2022-11-20T01:23:43;1.80;;;1.70;;
8001;SDS011;4046;48.774;8.732;2022-11-20T01:26:11;1.83;;;1.73;;
8001;SDS011;4046;48.774;8.732;2022-11-20T01:28:39;1.60;;;1.50;;
8001;SDS011;4046;48.774;8.732;2022-11-20T01:33:46;1.70;;;1.60;;
8001;SDS011;4046;48.774;8.732;2022-11-20T01:36:15;1.70;;;1.60;;
8001;SDS011;4046;48.774;8.732;2022-11-20T01:38:42;2.00;;;1.90;;
8001;SDS011;4046;48.774;8.732;2022-11-20T01:41:09;1.70;;;1.60;;
8001;SDS011;4046;48.774;8.732;2022-11-20T01:43:58;1.90;;;1.80;;
8001;SDS011;4046;48.774;8.732;2022-11-20T01:46:24;1.90;;;1.80;;
8001;SDS011;4046;48.774;8.732;2022-11-20T01:49:04;1.90;;;1.80;;
8001;SDS011;4046;48.774;8.732;2022-11-20T01:51:42;1.67;;;1.57;;
8001;SDS011;4046;48.774;8.732;2022-11-20T01:54:17;1.73;;;1.63;;
8001;SDS011;4046;48.774;8.732;2022-11-20T01:56:47;1.80;;;1.70;;
8001;SDS011;4046;48.774;8.732;2022-11-20T01:59:17;1.77;;;1.67;;
8001;SDS011;4046;48.774;8.732;2022-11-20T02:01:45;1.67;;;1.57;;
8001;SDS011;4046;48.774;8.732;2022-11-20T02:04:11;1.60;;;1.50;;
8001;SDS011;4046;48.774;8.732;2022-11-20T02:06:40;1.50;;;1.40;;
8001;SDS011;4046;48.774;8.732;2022-11-20T02:09:13;1.50;;;1.40;;
8001;SDS011;4046;48.774;8.732;2022-11-20T02:11:40;1.60;;;1.50;;
8001;SDS011;4046;48.774;8.732;2022-11-20T02:14:06;1.53;;;1.43;;
8001;SDS011;4046;48.774;8.732;2022-11-20T02:16:35;1.60;;;1.50;;
8001;SDS011;4046;48.774;8.732;2022-11-20T02:19:06;1.70;;;1.60;;
8001;SDS011;4046;48.774;8.732;2022-11-20T02:24:40;1.60;;;1.50;;
8001;SDS011;4046;48.774;8.732;2022-11-20T02:27:09;1.50;;;1.37;;
8001;SDS011;4046;48.774;8.732;2022-11-20T02:29:48;1.50;;;1.40;;
8001;SDS011;4046;48.774;8.732;2022-11-20T02:32:31;1.50;;;1.40;;
8001;SDS011;4046;48.774;8.732;2022-11-20T02:37:43;1.47;;;1.37;;
8001;SDS011;4046;48.774;8.732;2022-11-20T02:40:12;1.33;;;1.23;;
8001;SDS011;4046;48.774;8.732;2022-11-20T02:42:38;1.33;;;1.23;;
8001;SDS011;4046;48.774;8.732;2022-11-20T02:45:05;1.43;;;1.33;;
8001;SDS011;4046;48.774;8.732;2022-11-20T02:47:32;1.30;;;1.20;;
8001;SDS011;4046;48.774;8.732;2022-11-20T02:49:58;1.50;;;1.40;;
8001;SDS011;4046;48.774;8.732;2022-11-20T02:52:25;1.40;;;1.30;;
8001;SDS011;4046;48.774;8.732;2022-11-20T02:54:51;1.50;;;1.40;;
8001;SDS011;4046;48.774;8.732;2022-11-20T02:57:18;1.40;;;1.30;;
8001;SDS011;4046;48.774;8.732;2022-11-20T02:59:44;1.40;;;1.30;;
8001;SDS011;4046;48.774;8.732;2022-11-20T03:02:10;1.20;;;1.10;;
8001;SDS011;4046;48.774;8.732;2022-11-20T03:04:36;1.30;;;1.20;;
8001;SDS011;4046;48.774;8.732;2022-11-20T03:07:03;1.30;;;1.20;;
8001;SDS011;4046;48.774;8.732;2022-11-20T03:09:29;1.30;;;1.20;;
8001;SDS011;4046;48.774;8.732;2022-11-20T03:11:55;1.20;;;1.10;;
8001;SDS011;4046;48.774;8.732;2022-11-20T03:14:21;1.50;;;1.40;;
8001;SDS011;4046;48.774;8.732;2022-11-20T03:16:48;1.73;;;1.40;;
8001;SDS011;4046;48.774;8.732;2022-11-20T03:19:14;1.30;;;1.20;;
8001;SDS011;4046;48.774;8.732;2022-11-20T03:21:40;1.30;;;1.10;;
8001;SDS011;4046;48.774;8.732;2022-11-20T03:24:06;1.37;;;1.20;;
8001;SDS011;4046;48.774;8.732;2022-11-20T03:26:33;1.20;;;1.10;;
8001;SDS011;4046;48.774;8.732;2022-11-20T03:29:00;1.30;;;1.10;;
8001;SDS011;4046;48.774;8.732;2022-11-20T03:31:28;1.20;;;1.10;;
8001;SDS011;4046;48.774;8.732;2022-11-20T03:33:57;1.53;;;1.43;;
8001;SDS011;4046;48.774;8.732;2022-11-20T03:36:24;1.30;;;1.20;;
8001;SDS011;4046;48.774;8.732;2022-11-20T03:38:52;1.33;;;1.13;;
8001;SDS011;4046;48.774;8.732;2022-11-20T03:41:20;1.40;;;1.20;;
8001;SDS011;4046;48.774;8.732;2022-11-20T03:43:58;1.33;;;1.23;;
8001;SDS011;4046;48.774;8.732;2022-11-20T03:46:26;1.30;;;1.13;;
8001;SDS011;4046;48.774;8.732;2022-11-20T03:48:53;1.20;;;1.00;;
8001;SDS011;4046;48.774;8.732;2022-11-20T03:51:21;1.30;;;1.20;;
8001;SDS011;4046;48.774;8.732;2022-11-20T03:53:49;1.40;;;1.30;;
8001;SDS011;4046;48.774;8.732;2022-11-20T03:56:19;1.13;;;0.93;;
8001;SDS011;4046;48.774;8.732;2022-11-20T03:58:49;1.30;;;1.20;;
8001;SDS011;4046;48.774;8.732;2022-11-20T04:01:20;1.33;;;1.23;;
8001;SDS011;4046;48.774;8.732;2022-11-20T04:03:48;1.20;;;1.00;;
8001;SDS011;4046;48.774;8.732;2022-11-20T04:06:19;1.30;;;1.10;;
8001;SDS011;4046;48.774;8.732;2022-11-20T04:08:46;1.40;;;1.20;;
8001;SDS011;4046;48.774;8.732;2022-11-20T04:11:14;1.20;;;1.10;;
8001;SDS011;4046;48.774;8.732;2022-11-20T04:13:46;1.30;;;1.10;;
8001;SDS011;4046;48.774;8.732;2022-11-20T04:16:14;1.20;;;1.10;;
8001;SDS011;4046;48.774;8.732;2022-11-20T04:18:41;1.70;;;1.23;;
8001;SDS011;4046;48.774;8.732;2022-11-20T04:21:07;1.30;;;1.10;;
8001;SDS011;4046;48.774;8.732;2022-11-20T04:23:33;1.30;;;1.10;;
8001;SDS011;4046;48.774;8.732;2022-11-20T04:26:03;1.30;;;1.17;;
8001;SDS011;4046;48.774;8.732;2022-11-20T04:28:30;1.30;;;1.13;;
8001;SDS011;4046;48.774;8.732;2022-11-20T04:31:04;1.20;;;1.10;;
8001;SDS011;4046;48.774;8.732;2022-11-20T04:33:32;1.30;;;1.10;;
8001;SDS011;4046;48.774;8.732;2022-11-20T04:36:00;1.20;;;1.03;;
8001;SDS011;4046;48.774;8.732;2022-11-20T04:38:31;1.30;;;1.13;;
8001;SDS011;4046;48.774;8.732;2022-11-20T04:41:01;1.20;;;1.00;;
8001;SDS011;4046;48.774;8.732;2022-11-20T04:43:29;1.20;;;1.00;;
8001;SDS011;4046;48.774;8.732;2022-11-20T04:45:55;1.20;;;1.00;;
8001;SDS011;4046;48.774;8.732;2022-11-20T04:48:23;1.30;;;1.10;;
8001;SDS011;4046;48.774;8.732;2022-11-20T04:50:50;1.23;;;1.10;;
8001;SDS011;4046;48.774;8.732;2022-11-20T04:53:17;1.20;;;1.03;;
8001;SDS011;4046;48.774;8.732;2022-11-20T04:55:43;1.30;;;1.20;;
8001;SDS011;4046;48.774;8.732;2022-11-20T04:58:10;1.20;;;0.97;;
8001;SDS011;4046;48.774;8.732;2022-11-20T05:00:36;1.20;;;0.97;;
8001;SDS011;4046;48.774;8.732;2022-11-20T05:03:03;1.20;;;1.10;;
8001;SDS011;4046;48.774;8.732;2022-11-20T05:05:29;1.30;;;1.10;;
8001;SDS011;4046;48.774;8.732;2022-11-20T05:07:56;1.20;;;1.00;;
8001;SDS011;4046;48.774;8.732;2022-11-20T05:10:23;1.20;;;1.00;;
8001;SDS011;4046;48.774;8.732;2022-11-20T05:12:50;1.20;;;0.90;;
8001;SDS011;4046;48.774;8.732;2022-11-20T05:15:17;1.23;;;1.07;;
8001;SDS011;4046;48.774;8.732;2022-11-20T05:17:50;1.17;;;1.00;;
8001;SDS011;4046;48.774;8.732;2022-11-20T05:20:17;1.20;;;0.90;;
8001;SDS011;4046;48.774;8.732;2022-11-20T05:22:43;1.20;;;0.87;;
8001;SDS011;4046;48.774;8.732;2022-11-20T05:25:11;1.20;;;0.90;;
8001;SDS011;4046;48.774;8.732;2022-11-20T05:27:37;1.20;;;0.90;;
8001;SDS011;4046;48.774;8.732;2022-11-20T05:30:04;1.20;;;0.90;;
8001;SDS011;4046;48.774;8.732;2022-11-20T05:32:31;1.20;;;1.10;;
8001;SDS011;4046;48.774;8.732;2022-11-20T05:34:57;1.20;;;1.00;;
8001;SDS011;4046;48.774;8.732;2022-11-20T05:37:23;1.20;;;0.90;;
8001;SDS011;4046;48.774;8.732;2022-11-20T05:39:49;1.20;;;0.97;;
8001;SDS011;4046;48.774;8.732;2022-11-20T05:42:16;1.20;;;0.80;;
8001;SDS011;4046;48.774;8.732;2022-11-20T05:44:57;1.10;;;0.80;;
8001;SDS011;4046;48.774;8.732;2022-11-20T05:47:28;1.20;;;0.87;;
8001;SDS011;4046;48.774;8.732;2022-11-20T05:49:58;1.30;;;1.00;;
8001;SDS011;4046;48.774;8.732;2022-11-20T05:52:24;1.20;;;1.00;;
8001;SDS011;4046;48.774;8.732;2022-11-20T05:54:53;1.30;;;0.93;;
8001;SDS011;4046;48.774;8.732;2022-11-20T05:57:19;1.30;;;1.10;;
8001;SDS011;4046;48.774;8.732;2022-11-20T05:59:45;1.30;;;1.00;;
8001;SDS011;4046;48.774;8.732;2022-11-20T06:02:11;1.10;;;0.90;;
8001;SDS011;4046;48.774;8.732;2022-11-20T06:04:38;1.40;;;1.00;;
8001;SDS011;4046;48.774;8.732;2022-11-20T06:07:04;1.40;;;1.03;;
8001;SDS011;4046;48.774;8.732;2022-11-20T06:09:31;1.20;;;0.90;;
8001;SDS011;4046;48.774;8.732;2022-11-20T06:11:58;1.10;;;0.80;;
8001;SDS011;4046;48.774;8.732;2022-11-20T06:14:24;1.13;;;0.80;;
8001;SDS011;4046;48.774;8.732;2022-11-20T06:16:51;1.17;;;0.90;;
8001;SDS011;4046;48.774;8.732;2022-11-20T06:19:17;1.20;;;0.93;;
8001;SDS011;4046;48.774;8.732;2022-11-20T06:21:43;1.20;;;0.90;;
8001;SDS011;4046;48.774;8.732;2022-11-20T06:24:09;1.20;;;1.00;;
8001;SDS011;4046;48.774;8.732;2022-11-20T06:26:36;1.20;;;1.00;;
8001;SDS011;4046;48.774;8.732;2022-11-20T06:29:02;1.23;;;0.90;;
8001;SDS011;4046;48.774;8.732;2022-11-20T06:31:28;1.20;;;0.90;;
8001;SDS011;4046;48.774;8.732;2022-11-20T06:33:55;1.20;;;1.00;;
8001;SDS011;4046;48.774;8.732;2022-11-20T06:36:21;1.30;;;0.97;;
8001;SDS011;4046;48.774;8.732;2022-11-20T06:38:48;1.20;;;0.90;;
8001;SDS011;4046;48.774;8.732;2022-11-20T06:41:16;1.10;;;0.80;;
8001;SDS011;4046;48.774;8.732;2022-11-20T06:43:44;1.20;;;1.00;;
8001;SDS011;4046;48.774;8.732;2022-11-20T06:46:11;1.70;;;1.07;;
8001;SDS011;4046;48.774;8.732;2022-11-20T06:48:38;1.10;;;0.77;;
8001;SDS011;4046;48.774;8.732;2022-11-20T06:51:06;1.10;;;0.80;;
8001;SDS011;4046;48.774;8.732;2022-11-20T06:53:33;1.10;;;0.80;;
8001;SDS011;4046;48.774;8.732;2022-11-20T06:56:00;1.20;;;0.80;;
8001;SDS011;4046;48.774;8.732;2022-11-20T06:58:27;1.17;;;0.90;;
8001;SDS011;4046;48.774;8.732;2022-11-20T07:00:57;1.30;;;0.90;;
8001;SDS011;4046;48.774;8.732;2022-11-20T07:03:27;1.17;;;0.80;;
8001;SDS011;4046;48.774;8.732;2022-11-20T07:05:57;1.30;;;1.00;;
8001;SDS011;4046;48.774;8.732;2022-11-20T07:08:24;1.20;;;0.90;;
8001;SDS011;4046;48.774;8.732;2022-11-20T07:10:51;1.20;;;0.90;;
8001;SDS011;4046;48.774;8.732;2022-11-20T07:13:17;1.20;;;0.80;;
8001;SDS011;4046;48.774;8.732;2022-11-20T07:15:43;1.20;;;0.73;;
8001;SDS011;4046;48.774;8.732;2022-11-20T07:18:10;1.87;;;1.00;;
8001;SDS011;4046;48.774;8.732;2022-11-20T07:20:36;1.20;;;0.80;;
8001;SDS011;4046;48.774;8.732;2022-11-20T07:23:02;1.20;;;0.80;;
8001;SDS011;4046;48.774;8.732;2022-11-20T07:25:29;1.17;;;0.77;;
8001;SDS011;4046;48.774;8.732;2022-11-20T07:27:56;1.20;;;0.90;;
8001;SDS011;4046;48.774;8.732;2022-11-20T07:30:24;1.17;;;0.83;;
8001;SDS011;4046;48.774;8.732;2022-11-20T07:32:51;1.30;;;0.97;;
8001;SDS011;4046;48.774;8.732;2022-11-20T07:35:18;1.20;;;0.90;;
8001;SDS011;4046;48.774;8.732;2022-11-20T07:37:45;1.17;;;0.87;;
8001;SDS011;4046;48.774;8.732;2022-11-20T07:40:12;1.20;;;0.80;;
8001;SDS011;4046;48.774;8.732;2022-11-20T07:42:39;1.20;;;0.87;;
8001;SDS011;4046;48.774;8.732;2022-11-20T07:45:12;1.20;;;0.80;;
8001;SDS011;4046;48.774;8.732;2022-11-20T07:47:38;1.17;;;0.80;;
8001;SDS011;4046;48.774;8.732;2022-11-20T07:50:04;1.10;;;0.80;;
8001;SDS011;4046;48.774;8.732;2022-11-20T07:52:31;1.20;;;0.80;;
8001;SDS011;4046;48.774;8.732;2022-11-20T07:54:57;1.20;;;0.90;;
8001;SDS011;4046;48.774;8.732;2022-11-20T07:57:23;1.20;;;0.90;;
8001;SDS011;4046;48.774;8.732;2022-11-20T07:59:49;1.17;;;0.80;;
8001;SDS011;4046;48.774;8.732;2022-11-20T08:02:15;1.20;;;1.00;;
8001;SDS011;4046;48.774;8.732;2022-11-20T08:04:42;1.20;;;0.80;;
8001;SDS011;4046;48.774;8.732;2022-11-20T08:07:08;1.10;;;0.80;;
8001;SDS011;4046;48.774;8.732;2022-11-20T08:09:34;1.20;;;1.00;;
8001;SDS011;4046;48.774;8.732;2022-11-20T08:12:00;1.20;;;0.93;;
8001;SDS011;4046;48.774;8.732;2022-11-20T08:14:45;1.40;;;0.87;;
8001;SDS011;4046;48.774;8.732;2022-11-20T08:17:11;1.10;;;0.80;;
8001;SDS011;4046;48.774;8.732;2022-11-20T08:19:38;1.20;;;0.70;;
8001;SDS011;4046;48.774;8.732;2022-11-20T08:22:04;1.20;;;0.90;;
8001;SDS011;4046;48.774;8.732;2022-11-20T08:24:30;1.20;;;0.80;;
8001;SDS011;4046;48.774;8.732;2022-11-20T08:26:57;1.20;;;0.90;;
8001;SDS011;4046;48.774;8.732;2022-11-20T08:29:26;1.20;;;0.90;;
8001;SDS011;4046;48.774;8.732;2022-11-20T08:31:52;1.20;;;0.87;;
8001;SDS011;4046;48.774;8.732;2022-11-20T08:34:19;1.20;;;0.87;;
8001;SDS011;4046;48.774;8.732;2022-11-20T08:36:45;1.20;;;0.90;;
8001;SDS011;4046;48.774;8.732;2022-11-20T08:39:12;1.37;;;0.90;;
8001;SDS011;4046;48.774;8.732;2022-11-20T08:41:38;1.13;;;0.80;;
8001;SDS011;4046;48.774;8.732;2022-11-20T08:44:05;1.20;;;0.90;;
8001;SDS011;4046;48.774;8.732;2022-11-20T08:46:33;1.20;;;0.80;;
8001;SDS011;4046;48.774;8.732;2022-11-20T08:49:05;1.30;;;0.80;;
8001;SDS011;4046;48.774;8.732;2022-11-20T08:51:33;1.20;;;1.00;;
8001;SDS011;4046;48.774;8.732;2022-11-20T08:54:00;1.20;;;0.83;;
8001;SDS011;4046;48.774;8.732;2022-11-20T08:56:26;1.20;;;0.90;;
8001;SDS011;4046;48.774;8.732;2022-11-20T08:58:52;1.20;;;0.97;;
8001;SDS011;4046;48.774;8.732;2022-11-20T09:01:19;1.20;;;0.97;;
8001;SDS011;4046;48.774;8.732;2022-11-20T09:03:46;1.20;;;1.00;;
8001;SDS011;4046;48.774;8.732;2022-11-20T09:06:13;1.20;;;0.90;;
8001;SDS011;4046;48.774;8.732;2022-11-20T09:08:39;1.17;;;0.83;;
8001;SDS011;4046;48.774;8.732;2022-11-20T09:11:06;1.20;;;0.80;;
8001;SDS011;4046;48.774;8.732;2022-11-20T09:13:33;1.20;;;0.90;;
8001;SDS011;4046;48.774;8.732;2022-11-20T09:16:05;1.10;;;0.70;;
8001;SDS011;4046;48.774;8.732;2022-11-20T09:18:34;1.10;;;0.80;;
8001;SDS011;4046;48.774;8.732;2022-11-20T09:21:05;1.20;;;0.80;;
8001;SDS011;4046;48.774;8.732;2022-11-20T09:23:35;1.20;;;0.90;;
8001;SDS011;4046;48.774;8.732;2022-11-20T09:26:02;1.20;;;0.80;;
8001;SDS011;4046;48.774;8.732;2022-11-20T09:28:32;1.20;;;0.80;;
8001;SDS011;4046;48.774;8.732;2022-11-20T09:30:59;1.30;;;1.00;;
8001;SDS011;4046;48.774;8.732;2022-11-20T09:33:25;1.13;;;0.83;;
8001;SDS011;4046;48.774;8.732;2022-11-20T09:35:52;1.30;;;1.00;;
8001;SDS011;4046;48.774;8.732;2022-11-20T09:38:18;1.20;;;1.00;;
8001;SDS011;4046;48.774;8.732;2022-11-20T09:40:56;1.20;;;0.80;;
8001;SDS011;4046;48.774;8.732;2022-11-20T09:43:29;1.20;;;0.90;;
8001;SDS011;4046;48.774;8.732;2022-11-20T09:46:15;1.20;;;1.00;;
8001;SDS011;4046;48.774;8.732;2022-11-20T09:54:09;1.30;;;1.20;;
8001;SDS011;4046;48.774;8.732;2022-11-20T09:56:53;3.03;;;1.13;;
8001;SDS011;4046;48.774;8.732;2022-11-20T10:04:55;1.77;;;1.17;;
8001;SDS011;4046;48.774;8.732;2022-11-20T10:10:40;1.50;;;1.10;;
8001;SDS011;4046;48.774;8.732;2022-11-20T10:14:00;2.37;;;1.10;;
8001;SDS011;4046;48.774;8.732;2022-11-20T10:24:17;1.80;;;0.90;;
8001;SDS011;4046;48.774;8.732;2022-11-20T10:29:41;1.20;;;0.90;;
8001;SDS011;4046;48.774;8.732;2022-11-20T10:32:15;1.20;;;0.83;;
8001;SDS011;4046;48.774;8.732;2022-11-20T10:37:27;1.30;;;1.00;;
8001;SDS011;4046;48.774;8.732;2022-11-20T10:42:43;1.57;;;0.90;;
8001;SDS011;4046;48.774;8.732;2022-11-20T10:47:47;1.30;;;0.80;;
8001;SDS011;4046;48.774;8.732;2022-11-20T10:50:15;1.23;;;1.00;;
8001;SDS011;4046;48.774;8.732;2022-11-20T11:01:15;1.20;;;0.87;;
8001;SDS011;4046;48.774;8.732;2022-11-20T11:03:44;1.20;;;0.87;;
8001;SDS011;4046;48.774;8.732;2022-11-20T11:09:01;4.90;;;1.20;;
8001;SDS011;4046;48.774;8.732;2022-11-20T11:11:34;3.60;;;1.20;;
8001;SDS011;4046;48.774;8.732;2022-11-20T11:14:04;2.63;;;0.93;;
8001;SDS011;4046;48.774;8.732;2022-11-20T11:16:32;3.83;;;1.40;;
8001;SDS011;4046;48.774;8.732;2022-11-20T11:19:06;4.13;;;1.03;;
8001;SDS011;4046;48.774;8.732;2022-11-20T11:21:37;3.50;;;1.33;;
8001;SDS011;4046;48.774;8.732;2022-11-20T11:24:15;4.80;;;1.10;;
8001;SDS011;4046;48.774;8.732;2022-11-20T11:27:04;1.40;;;1.20;;
8001;SDS011;4046;48.774;8.732;2022-11-20T11:29:37;2.63;;;1.10;;
8001;SDS011;4046;48.774;8.732;2022-11-20T11:32:04;1.43;;;1.10;;
8001;SDS011;4046;48.774;8.732;2022-11-20T11:34:37;3.63;;;1.17;;
8001;SDS011;4046;48.774;8.732;2022-11-20T11:37:03;1.40;;;1.10;;
8001;SDS011;4046;48.774;8.732;2022-11-20T11:39:36;2.13;;;1.07;;
8001;SDS011;4046;48.774;8.732;2022-11-20T11:42:07;2.23;;;1.13;;
8001;SDS011;4046;48.774;8.732;2022-11-20T11:44:45;2.20;;;1.00;;
8001;SDS011;4046;48.774;8.732;2022-11-20T11:55:47;1.47;;;1.10;;
8001;SDS011;4046;48.774;8.732;2022-11-20T11:58:27;1.63;;;1.10;;
8001;SDS011;4046;48.774;8.732;2022-11-20T12:03:59;1.60;;;1.30;;
8001;SDS011;4046;48.774;8.732;2022-11-20T12:06:32;1.60;;;1.20;;
8001;SDS011;4046;48.774;8.732;2022-11-20T12:09:03;3.00;;;1.40;;
8001;SDS011;4046;48.774;8.732;2022-11-20T12:11:51;2.10;;;1.20;;
8001;SDS011;4046;48.774;8.732;2022-11-20T12:14:30;1.77;;;1.13;;
8001;SDS011;4046;48.774;8.732;2022-11-20T12:17:01;2.20;;;1.50;;
8001;SDS011;4046;48.774;8.732;2022-11-20T12:19:31;1.80;;;1.20;;
8001;SDS011;4046;48.774;8.732;2022-11-20T12:25:14;1.60;;;1.30;;
8001;SDS011;4046;48.774;8.732;2022-11-20T12:28:11;2.57;;;1.30;;
8001;SDS011;4046;48.774;8.732;2022-11-20T12:31:17;2.33;;;1.70;;
8001;SDS011;4046;48.774;8.732;2022-11-20T12:33:40;3.30;;;1.83;;
8001;SDS011;4046;48.774;8.732;2022-11-20T12:36:32;3.00;;;1.70;;
8001;SDS011;4046;48.774;8.732;2022-11-20T12:39:13;3.40;;;1.53;;
8001;SDS011;4046;48.774;8.732;2022-11-20T12:42:05;2.17;;;1.73;;
8001;SDS011;4046;48.774;8.732;2022-11-20T12:53:23;2.03;;;1.53;;
8001;SDS011;4046;48.774;8.732;2022-11-20T13:01:50;2.10;;;1.30;;
8001;SDS011;4046;48.774;8.732;2022-11-20T13:07:02;2.80;;;1.80;;
8001;SDS011;4046;48.774;8.732;2022-11-20T13:09:36;1.60;;;1.37;;
8001;SDS011;4046;48.774;8.732;2022-11-20T13:20:06;2.23;;;1.90;;
8001;SDS011;4046;48.774;8.732;2022-11-20T13:22:46;2.70;;;1.40;;
8001;SDS011;4046;48.774;8.732;2022-11-20T13:27:49;2.47;;;2.00;;
8001;SDS011;4046;48.774;8.732;2022-11-20T13:30:17;2.40;;;2.13;;
8001;SDS011;4046;48.774;8.732;2022-11-20T13:33:29;2.60;;;2.00;;
8001;SDS011;4046;48.774;8.732;2022-11-20T13:35:55;1.90;;;1.80;;
8001;SDS011;4046;48.774;8.732;2022-11-20T13:38:23;3.20;;;2.13;;
8001;SDS011;4046;48.774;8.732;2022-11-20T13:40:50;3.10;;;2.13;;
8001;SDS011;4046;48.774;8.732;2022-11-20T13:43:33;2.40;;;2.20;;
8001;SDS011;4046;48.774;8.732;2022-11-20T13:46:04;2.00;;;1.83;;
8001;SDS011;4046;48.774;8.732;2022-11-20T13:48:39;2.10;;;1.90;;
8001;SDS011;4046;48.774;8.732;2022-11-20T13:51:15;2.40;;;2.10;;
8001;SDS011;4046;48.774;8.732;2022-11-20T13:54:09;2.53;;;2.20;;
8001;SDS011;4046;48.774;8.732;2022-11-20T13:56:54;3.83;;;2.30;;
8001;SDS011;4046;48.774;8.732;2022-11-20T13:59:53;4.93;;;2.60;;
8001;SDS011;4046;48.774;8.732;2022-11-20T14:02:25;4.90;;;2.60;;
8001;SDS011;4046;48.774;8.732;2022-11-20T14:04:54;2.70;;;2.27;;
8001;SDS011;4046;48.774;8.732;2022-11-20T14:07:25;5.27;;;2.83;;
8001;SDS011;4046;48.774;8.732;2022-11-20T14:09:57;3.20;;;2.10;;
8001;SDS011;4046;48.774;8.732;2022-11-20T14:12:31;2.77;;;2.57;;
8001;SDS011;4046;48.774;8.732;2022-11-20T14:14:59;4.03;;;2.47;;
8001;SDS011;4046;48.774;8.732;2022-11-20T14:20:04;3.17;;;2.30;;
8001;SDS011;4046;48.774;8.732;2022-11-20T14:22:37;2.70;;;2.50;;
8001;SDS011;4046;48.774;8.732;2022-11-20T14:27:43;4.40;;;2.17;;
8001;SDS011;4046;48.774;8.732;2022-11-20T14:30:14;2.40;;;2.30;;
8001;SDS011;4046;48.774;8.732;2022-11-20T14:32:48;3.07;;;2.10;;
8001;SDS011;4046;48.774;8.732;2022-11-20T14:37:53;3.00;;;2.80;;
8001;SDS011;4046;48.774;8.732;2022-11-20T14:40:30;2.40;;;2.20;;
8001;SDS011;4046;48.774;8.732;2022-11-20T14:43:00;2.10;;;2.00;;
8001;SDS011;4046;48.774;8.732;2022-11-20T14:45:27;2.80;;;2.13;;
8001;SDS011;4046;48.774;8.732;2022-11-20T14:47:55;2.47;;;2.27;;
8001;SDS011;4046;48.774;8.732;2022-11-20T14:50:23;2.40;;;2.20;;
8001;SDS011;4046;48.774;8.732;2022-11-20T14:52:53;2.43;;;2.10;;
8001;SDS011;4046;48.774;8.732;2022-11-20T14:55:25;2.80;;;2.37;;
8001;SDS011;4046;48.774;8.732;2022-11-20T14:58:03;2.43;;;2.23;;
8001;SDS011;4046;48.774;8.732;2022-11-20T15:00:32;2.50;;;2.30;;
8001;SDS011;4046;48.774;8.732;2022-11-20T15:02:59;2.83;;;2.53;;
8001;SDS011;4046;48.774;8.732;2022-11-20T15:05:44;2.20;;;2.07;;
8001;SDS011;4046;48.774;8.732;2022-11-20T15:08:13;2.13;;;2.00;;
8001;SDS011;4046;48.774;8.732;2022-11-20T15:10:47;2.50;;;2.30;;
8001;SDS011;4046;48.774;8.732;2022-11-20T15:13:16;2.33;;;2.13;;
8001;SDS011;4046;48.774;8.732;2022-11-20T15:16:08;2.30;;;2.10;;
8001;SDS011;4046;48.774;8.732;2022-11-20T15:18:43;2.47;;;2.27;;
8001;SDS011;4046;48.774;8.732;2022-11-20T15:21:11;2.30;;;2.20;;
8001;SDS011;4046;48.774;8.732;2022-11-20T15:23:39;2.30;;;2.10;;
8001;SDS011;4046;48.774;8.732;2022-11-20T15:26:06;1.93;;;1.83;;
8001;SDS011;4046;48.774;8.732;2022-11-20T15:28:33;2.17;;;2.07;;
8001;SDS011;4046;48.774;8.732;2022-11-20T15:31:05;2.50;;;2.40;;
8001;SDS011;4046;48.774;8.732;2022-11-20T15:33:32;2.80;;;2.60;;
8001;SDS011;4046;48.774;8.732;2022-11-20T15:35:59;2.57;;;2.37;;
8001;SDS011;4046;48.774;8.732;2022-11-20T15:38:25;2.50;;;2.30;;
8001;SDS011;4046;48.774;8.732;2022-11-20T15:40:51;2.23;;;2.03;;
8001;SDS011;4046;48.774;8.732;2022-11-20T15:43:18;2.23;;;2.13;;
8001;SDS011;4046;48.774;8.732;2022-11-20T15:45:45;2.20;;;2.10;;
8001;SDS011;4046;48.774;8.732;2022-11-20T15:48:20;2.90;;;2.30;;
8001;SDS011;4046;48.774;8.732;2022-11-20T15:53:27;2.60;;;2.40;;
8001;SDS011;4046;48.774;8.732;2022-11-20T15:55:53;3.40;;;2.50;;
8001;SDS011;4046;48.774;8.732;2022-11-20T15:58:20;2.77;;;2.57;;
8001;SDS011;4046;48.774;8.732;2022-11-20T16:00:48;2.20;;;2.10;;
8001;SDS011;4046;48.774;8.732;2022-11-20T16:03:14;3.50;;;2.20;;
8001;SDS011;4046;48.774;8.732;2022-11-20T16:05:41;2.50;;;2.30;;
8001;SDS011;4046;48.774;8.732;2022-11-20T16:08:08;2.70;;;2.50;;
8001;SDS011;4046;48.774;8.732;2022-11-20T16:10:35;2.53;;;2.30;;
8001;SDS011;4046;48.774;8.732;2022-11-20T16:13:01;2.67;;;2.43;;
8001;SDS011;4046;48.774;8.732;2022-11-20T16:15:50;2.73;;;2.37;;
8001;SDS011;4046;48.774;8.732;2022-11-20T16:18:19;4.00;;;2.40;;
8001;SDS011;4046;48.774;8.732;2022-11-20T16:20:48;7.50;;;3.10;;
8001;SDS011;4046;48.774;8.732;2022-11-20T16:23:16;2.93;;;2.50;;
8001;SDS011;4046;48.774;8.732;2022-11-20T16:25:43;7.73;;;2.70;;
8001;SDS011;4046;48.774;8.732;2022-11-20T16:28:10;8.23;;;2.93;;
8001;SDS011;4046;48.774;8.732;2022-11-20T16:30:37;3.10;;;2.40;;
8001;SDS011;4046;48.774;8.732;2022-11-20T16:33:03;4.77;;;2.97;;
8001;SDS011;4046;48.774;8.732;2022-11-20T16:35:34;3.20;;;2.90;;
8001;SDS011;4046;48.774;8.732;2022-11-20T16:38:00;3.40;;;2.80;;
8001;SDS011;4046;48.774;8.732;2022-11-20T16:40:26;3.03;;;2.50;;
8001;SDS011;4046;48.774;8.732;2022-11-20T16:42:52;3.20;;;2.83;;
8001;SDS011;4046;48.774;8.732;2022-11-20T16:45:19;3.97;;;2.50;;
8001;SDS011;4046;48.774;8.732;2022-11-20T16:47:45;2.47;;;2.37;;
8001;SDS011;4046;48.774;8.732;2022-11-20T16:50:12;2.77;;;2.57;;
8001;SDS011;4046;48.774;8.732;2022-11-20T16:52:38;2.90;;;2.70;;
8001;SDS011;4046;48.774;8.732;2022-11-20T16:55:04;3.47;;;2.50;;
8001;SDS011;4046;48.774;8.732;2022-11-20T16:57:31;3.00;;;2.80;;
8001;SDS011;4046;48.774;8.732;2022-11-20T17:00:00;3.20;;;3.00;;
8001;SDS011;4046;48.774;8.732;2022-11-20T17:02:27;2.70;;;2.50;;
8001;SDS011;4046;48.774;8.732;2022-11-20T17:04:53;2.73;;;2.53;;
8001;SDS011;4046;48.774;8.732;2022-11-20T17:07:19;2.90;;;2.70;;
8001;SDS011;4046;48.774;8.732;2022-11-20T17:09:46;2.80;;;2.60;;
8001;SDS011;4046;48.774;8.732;2022-11-20T17:12:13;2.60;;;2.40;;
8001;SDS011;4046;48.774;8.732;2022-11-20T17:14:39;3.17;;;2.93;;